createdAt,value
2019-04-06T00:00:54.764Z,101425.23
2019-04-06T00:03:26.406Z,101432.50
2019-04-06T00:05:58.207Z,101429.73
2019-04-06T00:08:29.847Z,101433.95
2019-04-06T00:11:01.509Z,101437.68
2019-04-06T00:13:33.147Z,101435.44
2019-04-06T00:16:04.839Z,101434.88
2019-04-06T00:18:37.290Z,101432.53
2019-04-06T00:21:09.137Z,101428.67
2019-04-06T00:23:40.929Z,101431.31
2019-04-06T00:26:12.558Z,101426.45
2019-04-06T00:28:44.138Z,101429.98
2019-04-06T00:31:33.991Z,101430.31
2019-04-06T00:34:05.649Z,101429.27
2019-04-06T00:36:37.311Z,101425.11
2019-04-06T00:39:08.949Z,101426.53
2019-04-06T00:41:42.218Z,101424.48
2019-04-06T00:44:14.010Z,101422.37
2019-04-06T00:46:45.461Z,101421.94
2019-04-06T00:49:17.027Z,101429.20
2019-04-06T00:51:49.261Z,101426.89
2019-04-06T00:54:24.314Z,101428.31
2019-04-06T00:57:01.608Z,101410.52
2019-04-06T00:59:34.968Z,101424.38
2019-04-06T01:02:07.292Z,101421.59
2019-04-06T01:04:39.767Z,101424.20
2019-04-06T01:07:11.535Z,101418.78
2019-04-06T01:09:43.185Z,101424.26
2019-04-06T01:12:15.800Z,101425.04
2019-04-06T01:14:47.389Z,101426.52
2019-04-06T01:17:19.055Z,101427.52
2019-04-06T01:19:51.711Z,101424.56
2019-04-06T01:22:23.116Z,101434.41
2019-04-06T01:25:14.951Z,101429.71
2019-04-06T01:27:46.722Z,101433.37
2019-04-06T01:30:19.367Z,101433.90
2019-04-06T01:32:51.437Z,101431.58
2019-04-06T01:35:23.140Z,101436.64
2019-04-06T01:37:54.998Z,101438.27
2019-04-06T01:40:26.756Z,101437.47
2019-04-06T01:42:58.675Z,101436.49
2019-04-06T01:45:30.822Z,101439.57
2019-04-06T01:48:02.347Z,101436.17
2019-04-06T01:50:34.089Z,101434.38
2019-04-06T01:53:05.657Z,101437.95
2019-04-06T01:55:37.779Z,101436.86
2019-04-06T01:58:09.380Z,101440.97
2019-04-06T02:00:42.653Z,101431.28
2019-04-06T02:03:14.361Z,101431.83
2019-04-06T02:05:45.789Z,101432.53
2019-04-06T02:08:17.438Z,101441.58
2019-04-06T02:10:49.094Z,101436.09
2019-04-06T02:13:20.547Z,101443.70
2019-04-06T02:15:52.156Z,101441.67
2019-04-06T02:18:23.783Z,101418.88
2019-04-06T02:20:56.613Z,101443.30
2019-04-06T02:23:28.242Z,101451.96
2019-04-06T02:26:00.234Z,101449.02
2019-04-06T02:28:33.573Z,101454.80
2019-04-06T02:31:09.569Z,101461.23
2019-04-06T02:33:48.868Z,101455.66
2019-04-06T02:36:34.103Z,101457.20
2019-04-06T02:39:11.280Z,101457.52
2019-04-06T02:41:47.585Z,101456.81
2019-04-06T02:44:19.309Z,101449.36
2019-04-06T02:46:51.037Z,101453.72
2019-04-06T02:49:22.641Z,101454.89
2019-04-06T02:51:55.799Z,101459.61
2019-04-06T02:54:27.502Z,101461.17
2019-04-06T02:56:59.216Z,101453.13
2019-04-06T02:59:31.266Z,101456.05
2019-04-06T03:02:03.904Z,101453.27
2019-04-06T03:04:35.629Z,101459.61
2019-04-06T03:07:07.195Z,101463.16
2019-04-06T03:09:38.850Z,101460.67
2019-04-06T03:12:10.574Z,101454.23
2019-04-06T03:14:44.591Z,101462.92
2019-04-06T03:17:15.405Z,101466.63
2019-04-06T03:19:47.236Z,101470.19
2019-04-06T03:22:19.815Z,101466.07
2019-04-06T03:24:51.536Z,101468.53
2019-04-06T03:27:23.259Z,101464.19
2019-04-06T03:29:58.431Z,101469.56
2019-04-06T03:32:28.400Z,101467.48
2019-04-06T03:35:00.096Z,101466.33
2019-04-06T03:37:31.767Z,101471.20
2019-04-06T03:40:05.478Z,101460.52
2019-04-06T03:42:37.351Z,101467.67
2019-04-06T03:45:09.535Z,101467.31
2019-04-06T03:47:42.351Z,101463.42
2019-04-06T03:50:14.196Z,101474.52
2019-04-06T03:52:45.747Z,101475.08
2019-04-06T03:55:17.604Z,101470.98
2019-04-06T03:57:49.270Z,101473.70
2019-04-06T04:00:22.610Z,101473.61
2019-04-06T04:02:54.214Z,101482.47
2019-04-06T04:05:25.971Z,101479.12
2019-04-06T04:07:57.780Z,101476.58
2019-04-06T04:10:35.676Z,101477.64
2019-04-06T04:13:07.250Z,101478.03
2019-04-06T04:15:39.222Z,101479.35
2019-04-06T04:18:10.933Z,101475.48
2019-04-06T04:20:42.324Z,101482.28
2019-04-06T04:23:14.706Z,101479.48
2019-04-06T04:25:46.180Z,101480.48
2019-04-06T04:28:17.836Z,101488.16
2019-04-06T04:30:49.603Z,101484.86
2019-04-06T04:33:22.445Z,101483.29
2019-04-06T04:35:53.972Z,101490.28
2019-04-06T04:38:26.704Z,101492.52
2019-04-06T04:40:58.360Z,101486.68
2019-04-06T04:43:30.244Z,101492.14
2019-04-06T04:46:01.863Z,101486.23
2019-04-06T04:48:33.452Z,101493.19
2019-04-06T04:51:06.530Z,101494.91
2019-04-06T04:53:38.357Z,101495.16
2019-04-06T04:56:09.944Z,101492.98
2019-04-06T04:58:41.498Z,101494.73
2019-04-06T05:01:13.317Z,101500.08
2019-04-06T05:03:44.964Z,101495.02
2019-04-06T05:06:16.680Z,101487.33
2019-04-06T05:08:49.339Z,101489.85
2019-04-06T05:11:21.125Z,101491.78
2019-04-06T05:14:12.281Z,101492.36
2019-04-06T05:16:44.067Z,101495.79
2019-04-06T05:19:16.583Z,101494.81
2019-04-06T05:24:27.161Z,101495.17
2019-04-06T05:26:58.770Z,101496.69
2019-04-06T05:29:33.106Z,101492.50
2019-04-06T05:32:04.986Z,101490.38
2019-04-06T05:34:36.879Z,101486.56
2019-04-06T05:37:10.133Z,101490.13
2019-04-06T05:39:41.670Z,101481.71
2019-04-06T05:42:13.839Z,101490.95
2019-04-06T05:44:45.695Z,101485.55
2019-04-06T05:47:17.281Z,101484.41
2019-04-06T05:49:49.958Z,101484.25
2019-04-06T05:52:21.517Z,101481.07
2019-04-06T05:54:53.158Z,101489.56
2019-04-06T05:57:24.850Z,101490.28
2019-04-06T05:59:56.457Z,101490.69
2019-04-06T06:02:28.142Z,101491.42
2019-04-06T06:05:01.216Z,101486.03
2019-04-06T06:07:33.202Z,101492.23
2019-04-06T06:10:06.920Z,101493.07
2019-04-06T06:12:38.632Z,101489.41
2019-04-06T06:15:11.442Z,101487.52
2019-04-06T06:17:43.290Z,101492.80
2019-04-06T06:20:16.427Z,101494.25
2019-04-06T06:22:48.654Z,101493.14
2019-04-06T06:25:21.206Z,101493.45
2019-04-06T06:27:54.623Z,101498.06
2019-04-06T06:30:26.428Z,101499.53
2019-04-06T06:32:58.161Z,101494.44
2019-04-06T06:35:30.065Z,101496.14
2019-04-06T06:38:03.182Z,101491.89
2019-04-06T06:40:35.857Z,101492.24
2019-04-06T06:43:08.084Z,101488.84
2019-04-06T06:45:39.998Z,101487.01
2019-04-06T06:48:13.158Z,101481.62
2019-04-06T06:50:47.003Z,101488.72
2019-04-06T06:53:18.696Z,101482.69
2019-04-06T06:55:53.985Z,101485.07
2019-04-06T06:58:26.544Z,101478.31
2019-04-06T07:01:03.297Z,101471.45
2019-04-06T07:03:35.129Z,101475.00
2019-04-06T07:06:06.922Z,101482.12
2019-04-06T07:09:03.167Z,101480.61
2019-04-06T07:11:34.820Z,101484.20
2019-04-06T07:14:08.299Z,101491.02
2019-04-06T07:16:41.381Z,101482.94
2019-04-06T07:19:13.245Z,101484.02
2019-04-06T07:21:46.091Z,101488.96
2019-04-06T07:24:19.771Z,101484.55
2019-04-06T07:26:52.678Z,101477.58
2019-04-06T07:29:24.370Z,101482.61
2019-04-06T07:31:56.440Z,101479.93
2019-04-06T07:34:28.380Z,101484.52
2019-04-06T07:37:01.738Z,101491.92
2019-04-06T07:39:33.486Z,101485.98
2019-04-06T07:42:05.734Z,101482.81
2019-04-06T07:44:39.104Z,101484.52
2019-04-06T07:47:11.938Z,101488.00
2019-04-06T07:49:43.627Z,101484.27
2019-04-06T07:52:15.256Z,101480.35
2019-04-06T07:54:47.056Z,101478.44
2019-04-06T07:57:18.855Z,101477.64
2019-04-06T07:59:50.686Z,101465.17
2019-04-06T08:02:22.440Z,101472.62
2019-04-06T08:04:54.113Z,101470.17
2019-04-06T08:07:25.773Z,101469.71
2019-04-06T08:09:57.491Z,101466.58
2019-04-06T08:12:28.964Z,101468.39
2019-04-06T08:15:00.514Z,101454.17
2019-04-06T08:17:31.969Z,101452.22
2019-04-06T08:20:06.849Z,101447.16
2019-04-06T08:22:38.460Z,101448.41
2019-04-06T08:25:10.398Z,101443.75
2019-04-06T08:27:47.485Z,101440.55
2019-04-06T08:30:19.055Z,101439.34
2019-04-06T08:32:50.738Z,101439.44
2019-04-06T08:35:26.162Z,101439.39
2019-04-06T08:37:55.431Z,101436.84
2019-04-06T08:40:27.412Z,101438.47
2019-04-06T08:42:59.444Z,101429.23
2019-04-06T08:45:31.312Z,101429.09
2019-04-06T08:48:04.977Z,101437.52
2019-04-06T08:50:36.501Z,101434.39
2019-04-06T08:53:10.933Z,101429.19
2019-04-06T08:55:43.271Z,101430.63
2019-04-06T08:58:14.856Z,101434.97
2019-04-06T09:00:51.477Z,101428.38
2019-04-06T09:03:23.951Z,101423.59
2019-04-06T09:05:55.666Z,101416.00
2019-04-06T09:08:28.859Z,101422.89
2019-04-06T09:11:02.701Z,101428.49
2019-04-06T09:13:36.820Z,101417.51
2019-04-06T09:16:08.511Z,101418.11
2019-04-06T09:18:40.516Z,101419.99
2019-04-06T09:21:15.516Z,101416.37
2019-04-06T09:23:47.302Z,101402.42
2019-04-06T09:26:19.573Z,101413.05
2019-04-06T09:29:03.116Z,101414.72
2019-04-06T09:31:35.232Z,101410.70
2019-04-06T09:34:09.184Z,101415.05
2019-04-06T09:36:41.075Z,101410.89
2019-04-06T09:39:13.005Z,101402.91
2019-04-06T09:41:44.933Z,101411.41
2019-04-06T09:44:21.342Z,101409.67
2019-04-06T09:47:01.900Z,101413.27
2019-04-06T09:49:47.758Z,101413.91
2019-04-06T09:52:33.595Z,101411.09
2019-04-06T09:55:22.839Z,101412.77
2019-04-06T09:58:15.593Z,101410.91
2019-04-06T10:00:54.992Z,101400.82
2019-04-06T10:03:34.411Z,101409.58
2019-04-06T10:06:13.643Z,101404.83
2019-04-06T10:08:52.635Z,101406.72
2019-04-06T10:11:31.748Z,101406.41
2019-04-06T10:14:14.029Z,101405.22
2019-04-06T10:16:56.876Z,101400.27
2019-04-06T10:19:30.097Z,101394.89
2019-04-06T10:22:12.037Z,101389.45
2019-04-06T10:24:45.532Z,101385.97
2019-04-06T10:27:18.630Z,101385.75
2019-04-06T10:30:10.596Z,101389.62
2019-04-06T10:32:46.686Z,101374.88
2019-04-06T10:35:28.920Z,101378.17
2019-04-06T10:38:04.707Z,101372.92
2019-04-06T10:40:54.563Z,101374.52
2019-04-06T10:43:28.242Z,101371.66
2019-04-06T10:46:04.125Z,101374.75
2019-04-06T10:48:55.239Z,101371.77
2019-04-06T10:51:42.069Z,101367.28
2019-04-06T10:54:33.323Z,101365.17
2019-04-06T10:57:06.807Z,101360.53
2019-04-06T10:59:40.605Z,101351.98
2019-04-06T11:02:30.206Z,101350.01
2019-04-06T11:05:05.991Z,101355.23
2019-04-06T11:07:40.308Z,101347.70
2019-04-06T11:10:13.785Z,101346.76
2019-04-06T11:12:52.912Z,101344.02
2019-04-06T11:15:26.366Z,101348.25
2019-04-06T11:18:17.818Z,101338.59
2019-04-06T11:20:50.972Z,101329.89
2019-04-06T11:23:30.282Z,101328.64
2019-04-06T11:26:19.985Z,101331.52
2019-04-06T11:29:02.958Z,101330.05
2019-04-06T11:31:53.573Z,101322.47
2019-04-06T11:34:26.861Z,101326.11
2019-04-06T11:37:19.018Z,101319.66
2019-04-06T11:40:10.117Z,101317.75
2019-04-06T11:43:00.094Z,101306.53
2019-04-06T11:45:33.547Z,101307.26
2019-04-06T11:48:10.013Z,101303.36
2019-04-06T11:51:00.095Z,101302.64
2019-04-06T11:53:36.366Z,101301.14
2019-04-06T11:56:09.653Z,101296.42
2019-04-06T11:58:52.871Z,101289.87
2019-04-06T12:01:29.377Z,101292.27
2019-04-06T12:04:02.578Z,101290.83
2019-04-06T12:06:36.645Z,101276.32
2019-04-06T12:09:10.525Z,101276.98
2019-04-06T12:12:00.645Z,101279.77
2019-04-06T12:14:37.803Z,101274.96
2019-04-06T12:17:17.137Z,101275.42
2019-04-06T12:20:08.872Z,101270.90
2019-04-06T12:22:44.990Z,101271.92
2019-04-06T12:25:23.968Z,101266.37
2019-04-06T12:28:03.765Z,101261.52
2019-04-06T12:30:49.213Z,101261.23
2019-04-06T12:33:26.377Z,101256.73
2019-04-06T12:36:00.036Z,101255.50
2019-04-06T12:38:35.837Z,101257.06
2019-04-06T12:41:20.912Z,101263.45
2019-04-06T12:44:12.199Z,101261.16
2019-04-06T12:46:52.175Z,101251.61
2019-04-06T12:49:41.691Z,101258.01
2019-04-06T12:52:23.859Z,101258.09
2019-04-06T12:55:06.774Z,101250.66
2019-04-06T12:57:48.465Z,101244.02
2019-04-06T13:00:34.004Z,101253.84
2019-04-06T13:03:24.245Z,101250.28
2019-04-06T13:05:59.612Z,101235.75
2019-04-06T13:08:49.468Z,101245.12
2019-04-06T13:11:40.075Z,101234.91
2019-04-06T13:17:35.640Z,101235.40
2019-04-06T13:20:24.986Z,101231.20
2019-04-06T13:23:14.383Z,101238.19
2019-04-06T13:26:00.170Z,101230.06
2019-04-06T13:28:36.508Z,101234.28
2019-04-06T13:31:18.924Z,101226.87
2019-04-06T13:34:05.922Z,101225.89
2019-04-06T13:36:40.753Z,101220.25
2019-04-06T13:39:26.715Z,101225.10
2019-04-06T13:42:06.432Z,101226.80
2019-04-06T13:44:49.988Z,101221.62
2019-04-06T13:47:29.694Z,101220.45
2019-04-06T13:50:19.617Z,101207.89
2019-04-06T13:53:11.158Z,101206.70
2019-04-06T13:55:44.392Z,101196.52
2019-04-06T13:58:17.681Z,101198.78
2019-04-06T14:00:53.326Z,101189.95
2019-04-06T14:03:41.240Z,101195.75
2019-04-06T14:06:24.025Z,101197.16
2019-04-06T14:09:03.658Z,101195.64
2019-04-06T14:11:37.166Z,101198.23
2019-04-06T14:14:14.046Z,101199.98
2019-04-06T14:16:52.217Z,101196.50
2019-04-06T14:19:25.981Z,101188.80
2019-04-06T14:21:59.339Z,101195.70
2019-04-06T14:24:37.440Z,101194.55
2019-04-06T14:27:27.419Z,101193.23
2019-04-06T14:30:11.255Z,101196.75
2019-04-06T14:32:53.376Z,101193.65
2019-04-06T14:35:47.994Z,101189.61
2019-04-06T14:38:37.881Z,101188.63
2019-04-06T14:41:16.703Z,101185.20
2019-04-06T14:44:06.994Z,101191.91
2019-04-06T14:46:45.121Z,101191.28
2019-04-06T14:49:29.505Z,101184.72
2019-04-06T14:52:07.246Z,101182.00
2019-04-06T14:54:46.173Z,101185.55
2019-04-06T14:57:25.879Z,101178.45
2019-04-06T15:00:09.031Z,101187.53
2019-04-06T15:02:54.289Z,101184.36
2019-04-06T15:05:30.172Z,101176.75
2019-04-06T15:08:04.592Z,101180.78
2019-04-06T15:10:40.645Z,101180.95
2019-04-06T15:13:29.381Z,101174.71
2019-04-06T15:16:05.153Z,101177.36
2019-04-06T15:18:38.616Z,101178.70
2019-04-06T15:21:11.968Z,101180.87
2019-04-06T15:24:01.734Z,101173.82
2019-04-06T15:26:46.901Z,101185.73
2019-04-06T15:29:33.610Z,101182.54
2019-04-06T15:32:19.369Z,101181.47
2019-04-06T15:35:02.028Z,101186.15
2019-04-06T15:37:47.873Z,101190.19
2019-04-06T15:40:33.393Z,101189.56
2019-04-06T15:43:23.579Z,101191.20
2019-04-06T15:46:00.383Z,101190.03
2019-04-06T15:48:49.936Z,101185.33
2019-04-06T15:51:29.475Z,101182.61
2019-04-06T15:54:05.641Z,101182.89
2019-04-06T15:57:00.290Z,101180.30
2019-04-06T15:59:51.327Z,101181.44
2019-04-06T16:02:24.872Z,101182.06
2019-04-06T16:05:02.441Z,101178.98
2019-04-06T16:07:49.046Z,101176.59
2019-04-06T16:10:39.184Z,101178.35
2019-04-06T16:13:16.899Z,101181.69
2019-04-06T16:15:53.947Z,101185.83
2019-04-06T16:18:45.054Z,101180.21
2019-04-06T16:21:35.266Z,101179.11
2019-04-06T16:24:12.849Z,101177.15
2019-04-06T16:26:56.777Z,101180.71
2019-04-06T16:29:30.392Z,101177.92
2019-04-06T16:32:11.484Z,101180.27
2019-04-06T16:34:40.890Z,101180.87
2019-04-06T16:37:19.231Z,101179.70
2019-04-06T16:39:56.295Z,101182.00
2019-04-06T16:42:32.822Z,101184.77
2019-04-06T16:45:24.077Z,101189.00
2019-04-06T16:48:09.533Z,101190.23
2019-04-06T16:51:00.830Z,101194.39
2019-04-06T16:53:34.231Z,101199.64
2019-04-06T16:56:10.747Z,101200.95
2019-04-06T16:58:43.849Z,101208.22
2019-04-06T17:01:23.267Z,101202.66
2019-04-06T17:04:11.814Z,101202.52
2019-04-06T17:06:49.061Z,101213.06
2019-04-06T17:09:25.848Z,101210.21
2019-04-06T17:11:59.252Z,101205.61
2019-04-06T17:14:48.548Z,101209.55
2019-04-06T17:17:24.647Z,101211.35
2019-04-06T17:20:00.813Z,101206.65
2019-04-06T17:22:50.547Z,101210.09
2019-04-06T17:25:29.653Z,101217.63
2019-04-06T17:28:09.085Z,101213.56
2019-04-06T17:30:45.157Z,101212.77
2019-04-06T17:33:19.034Z,101215.73
2019-04-06T17:36:10.810Z,101214.77
2019-04-06T17:39:00.258Z,101216.75
2019-04-06T17:41:51.169Z,101219.14
2019-04-06T17:44:37.271Z,101214.48
2019-04-06T17:47:23.102Z,101217.80
2019-04-06T17:50:06.257Z,101219.27
2019-04-06T17:52:43.957Z,101216.30
2019-04-06T17:55:17.942Z,101223.20
2019-04-06T17:57:53.754Z,101218.70
2019-04-06T18:00:43.836Z,101221.44
2019-04-06T18:03:35.518Z,101226.37
2019-04-06T18:06:16.761Z,101226.16
2019-04-06T18:09:08.475Z,101227.21
2019-04-06T18:12:04.890Z,101220.11
2019-04-06T18:14:36.768Z,101216.02
2019-04-06T18:17:08.867Z,101221.47
2019-04-06T18:19:40.492Z,101220.39
2019-04-06T18:22:12.592Z,101212.22
2019-04-06T18:24:45.186Z,101212.42
2019-04-06T18:27:17.338Z,101212.37
2019-04-06T18:29:49.326Z,101217.16
2019-04-06T18:32:26.144Z,101210.25
2019-04-06T18:34:57.579Z,101211.31
2019-04-06T18:37:30.795Z,101212.70
2019-04-06T18:40:08.113Z,101207.63
2019-04-06T18:42:40.550Z,101209.05
2019-04-06T18:45:14.398Z,101208.27
2019-04-06T18:47:47.302Z,101196.98
2019-04-06T18:50:33.341Z,101205.44
2019-04-06T18:52:56.926Z,101203.95
2019-04-06T18:55:28.961Z,101201.09
2019-04-06T18:58:10.622Z,101204.98
2019-04-06T19:00:34.953Z,101202.50
2019-04-06T19:03:14.179Z,101206.68
2019-04-06T19:05:40.534Z,101198.88
2019-04-06T19:08:14.302Z,101194.14
2019-04-06T19:10:46.011Z,101200.66
2019-04-06T19:13:19.371Z,101196.86
2019-04-06T19:15:50.916Z,101206.33
2019-04-06T19:18:23.081Z,101204.84
2019-04-06T19:20:55.226Z,101203.88
2019-04-06T19:23:27.702Z,101199.30
2019-04-06T19:26:00.229Z,101199.17
2019-04-06T19:28:32.979Z,101200.67
2019-04-06T19:31:07.555Z,101201.64
2019-04-06T19:33:42.195Z,101200.98
2019-04-06T19:36:13.748Z,101194.56
2019-04-06T19:38:45.431Z,101204.53
2019-04-06T19:41:17.880Z,101199.95
2019-04-06T19:43:49.967Z,101192.13
2019-04-06T19:46:22.771Z,101205.95
2019-04-06T19:48:54.746Z,101203.69
2019-04-06T19:51:26.554Z,101201.47
2019-04-06T19:53:58.494Z,101198.73
2019-04-06T19:56:30.706Z,101202.87
2019-04-06T19:59:02.901Z,101203.39
2019-04-06T20:01:35.491Z,101213.17
2019-04-06T20:04:07.247Z,101207.05
2019-04-06T20:06:39.056Z,101211.13
2019-04-06T20:09:10.840Z,101207.42
2019-04-06T20:11:42.644Z,101202.39
2019-04-06T20:14:14.636Z,101215.61
2019-04-06T20:16:47.779Z,101207.64
2019-04-06T20:19:22.396Z,101205.00
2019-04-06T20:21:53.980Z,101202.70
2019-04-06T20:24:27.598Z,101208.12
2019-04-06T20:26:59.264Z,101206.45
2019-04-06T20:29:31.009Z,101208.88
2019-04-06T20:32:03.723Z,101206.35
2019-04-06T20:34:35.534Z,101210.58
2019-04-06T20:37:09.444Z,101204.88
2019-04-06T20:39:41.108Z,101207.80
2019-04-06T20:42:13.293Z,101203.45
2019-04-06T20:44:45.141Z,101213.16
2019-04-06T20:47:17.834Z,101204.09
2019-04-06T20:49:49.520Z,101216.70
2019-04-06T20:52:21.707Z,101210.53
2019-04-06T20:54:53.782Z,101214.86
2019-04-06T20:57:27.530Z,101213.78
2019-04-06T20:59:59.538Z,101209.78
2019-04-06T21:02:32.433Z,101212.70
2019-04-06T21:05:06.997Z,101212.35
2019-04-06T21:07:38.401Z,101211.50
2019-04-06T21:10:10.941Z,101203.89
2019-04-06T21:12:43.336Z,101209.95
2019-04-06T21:15:18.822Z,101211.39
2019-04-06T21:17:48.233Z,101204.14
2019-04-06T21:20:21.946Z,101205.72
2019-04-06T21:22:54.095Z,101197.73
2019-04-06T21:25:25.634Z,101202.34
2019-04-06T21:27:57.199Z,101196.75
2019-04-06T21:30:30.460Z,101194.59
2019-04-06T21:33:02.163Z,101183.19
2019-04-06T21:35:33.694Z,101190.23
2019-04-06T21:38:05.557Z,101189.74
2019-04-06T21:40:41.307Z,101188.04
2019-04-06T21:43:12.685Z,101187.56
2019-04-06T21:45:46.745Z,101185.02
2019-04-06T21:48:19.742Z,101182.73
2019-04-06T21:50:51.693Z,101186.73
2019-04-06T21:53:23.435Z,101179.92
2019-04-06T21:56:04.152Z,101183.69
2019-04-06T21:58:30.420Z,101184.41
2019-04-06T22:01:02.661Z,101184.61
2019-04-06T22:03:34.712Z,101183.66
2019-04-06T22:06:06.580Z,101187.41
2019-04-06T22:08:38.499Z,101186.66
2019-04-06T22:11:10.036Z,101189.55
2019-04-06T22:13:41.890Z,101186.79
2019-04-06T22:16:13.974Z,101183.14
2019-04-06T22:18:45.418Z,101166.09
2019-04-06T22:21:17.116Z,101183.66
2019-04-06T22:23:48.740Z,101176.88
2019-04-06T22:26:21.547Z,101177.38
2019-04-06T22:28:53.500Z,101178.10
2019-04-06T22:31:25.014Z,101177.86
2019-04-06T22:33:56.844Z,101182.56
2019-04-06T22:36:28.644Z,101179.09
2019-04-06T22:39:00.693Z,101175.81
2019-04-06T22:41:33.916Z,101176.30
2019-04-06T22:44:05.908Z,101178.10
2019-04-06T22:46:38.860Z,101173.73
2019-04-06T22:49:13.439Z,101169.64
2019-04-06T22:51:46.001Z,101174.69
2019-04-06T22:54:17.750Z,101170.83
2019-04-06T22:56:49.567Z,101170.36
2019-04-06T22:59:21.083Z,101168.65
2019-04-06T23:01:53.271Z,101171.78
2019-04-06T23:04:46.623Z,101163.90
2019-04-06T23:07:16.685Z,101165.70
2019-04-06T23:09:48.388Z,101159.18
2019-04-06T23:12:20.044Z,101159.41
2019-04-06T23:14:53.708Z,101160.86
2019-04-06T23:17:26.053Z,101154.92
2019-04-06T23:19:57.857Z,101153.02
2019-04-06T23:22:30.156Z,101150.12
2019-04-06T23:25:02.031Z,101157.70
2019-04-06T23:27:33.669Z,101150.06
2019-04-06T23:30:08.844Z,101144.86
2019-04-06T23:32:41.017Z,101151.38
2019-04-06T23:35:12.945Z,101150.51
2019-04-06T23:37:47.098Z,101153.80
2019-04-06T23:40:17.904Z,101154.98
2019-04-06T23:42:49.214Z,101152.67
2019-04-06T23:45:21.086Z,101151.19
2019-04-06T23:47:52.721Z,101147.80
2019-04-06T23:50:25.429Z,101006.56
2019-04-06T23:52:57.611Z,101146.09
2019-04-06T23:55:29.428Z,101143.66
2019-04-06T23:58:01.652Z,101145.78
